createdAt,value
2018-08-04T00:00:14.427Z,0
2018-08-04T00:01:16.472Z,0
2018-08-04T00:02:18.523Z,0
2018-08-04T00:03:20.576Z,0
2018-08-04T00:04:22.613Z,0
2018-08-04T00:05:24.667Z,0
2018-08-04T00:06:27.397Z,0
2018-08-04T00:07:29.449Z,0
2018-08-04T00:08:31.483Z,0
2018-08-04T00:09:33.541Z,0
2018-08-04T00:10:35.601Z,0
2018-08-04T00:11:37.950Z,0
2018-08-04T00:12:40.377Z,0
2018-08-04T00:13:42.432Z,0
2018-08-04T00:14:44.786Z,0
2018-08-04T00:15:46.837Z,0
2018-08-04T00:16:48.887Z,0
2018-08-04T00:17:50.936Z,0
2018-08-04T00:18:52.980Z,0
2018-08-04T00:19:55.023Z,0
2018-08-04T00:20:57.072Z,0
2018-08-04T00:21:59.127Z,0
2018-08-04T00:23:01.563Z,0
2018-08-04T00:24:03.908Z,0
2018-08-04T00:25:06.547Z,0
2018-08-04T00:26:08.618Z,0
2018-08-04T00:27:10.654Z,0
2018-08-04T00:28:12.998Z,0
2018-08-04T00:29:15.059Z,0
2018-08-04T00:30:17.108Z,0
2018-08-04T00:31:19.158Z,0
2018-08-04T00:32:21.203Z,0
2018-08-04T00:33:23.267Z,0
2018-08-04T00:34:25.309Z,0
2018-08-04T00:35:27.364Z,0
2018-08-04T00:36:29.417Z,0
2018-08-04T00:37:31.463Z,0
2018-08-04T00:38:33.808Z,0
2018-08-04T00:39:36.147Z,0
2018-08-04T00:40:38.502Z,0
2018-08-04T00:41:41.127Z,0
2018-08-04T00:42:43.477Z,0
2018-08-04T00:43:45.909Z,0
2018-08-04T00:44:48.366Z,0
2018-08-04T00:45:50.407Z,0
2018-08-04T00:46:52.454Z,0
2018-08-04T00:47:54.504Z,0
2018-08-04T00:48:56.558Z,0
2018-08-04T00:49:58.608Z,0
2018-08-04T00:51:00.651Z,0
2018-08-04T00:52:02.709Z,0
2018-08-04T00:53:04.757Z,0
2018-08-04T00:54:07.108Z,0
2018-08-04T00:55:09.195Z,0
2018-08-04T00:56:11.506Z,0
2018-08-04T00:57:13.549Z,0
2018-08-04T00:58:15.610Z,0
2018-08-04T00:59:17.657Z,0
2018-08-04T01:00:19.709Z,0
2018-08-04T01:01:21.758Z,0
2018-08-04T01:02:23.823Z,0
2018-08-04T01:03:25.870Z,0
2018-08-04T01:04:27.918Z,0
2018-08-04T01:05:29.960Z,0
2018-08-04T01:06:32.718Z,0
2018-08-04T01:07:34.767Z,0
2018-08-04T01:08:36.820Z,0
2018-08-04T01:09:39.181Z,0
2018-08-04T01:10:41.232Z,0
2018-08-04T01:11:43.289Z,0
2018-08-04T01:12:45.335Z,0
2018-08-04T01:13:47.407Z,0
2018-08-04T01:14:49.704Z,0
2018-08-04T01:15:51.760Z,0
2018-08-04T01:16:53.812Z,0
2018-08-04T01:17:55.860Z,0
2018-08-04T01:18:57.923Z,0
2018-08-04T01:19:59.971Z,0
2018-08-04T01:21:02.020Z,0
2018-08-04T01:22:04.463Z,0
2018-08-04T01:23:06.509Z,0
2018-08-04T01:24:08.849Z,0
2018-08-04T01:25:10.903Z,0
2018-08-04T01:26:12.960Z,0
2018-08-04T01:27:15.017Z,0
2018-08-04T01:28:17.076Z,0
2018-08-04T01:29:19.127Z,0
2018-08-04T01:30:21.172Z,0
2018-08-04T01:31:23.231Z,0
2018-08-04T01:32:25.282Z,0
2018-08-04T01:33:27.340Z,0
2018-08-04T01:34:29.403Z,0
2018-08-04T01:35:31.823Z,0
2018-08-04T01:36:33.873Z,0
2018-08-04T01:37:35.922Z,0
2018-08-04T01:38:37.972Z,0
2018-08-04T01:39:40.013Z,0
2018-08-04T01:40:42.365Z,0
2018-08-04T01:41:44.413Z,0
2018-08-04T01:42:46.455Z,0
2018-08-04T01:43:48.901Z,0
2018-08-04T01:44:50.942Z,0
2018-08-04T01:45:53.275Z,0
2018-08-04T01:46:55.322Z,0
2018-08-04T01:47:57.378Z,0
2018-08-04T01:48:59.418Z,0
2018-08-04T01:50:01.467Z,0
2018-08-04T01:51:03.519Z,0
2018-08-04T01:52:05.555Z,0
2018-08-04T01:53:08.002Z,0
2018-08-04T01:54:10.435Z,0
2018-08-04T01:55:12.758Z,0
2018-08-04T01:56:14.807Z,0
2018-08-04T01:57:17.159Z,0
2018-08-04T01:58:19.204Z,0
2018-08-04T01:59:21.256Z,0
2018-08-04T02:00:23.297Z,0
2018-08-04T02:01:25.339Z,0
2018-08-04T02:02:27.383Z,0
2018-08-04T02:03:29.433Z,0
2018-08-04T02:04:31.466Z,0
2018-08-04T02:05:33.513Z,0
2018-08-04T02:06:35.564Z,0
2018-08-04T02:07:37.608Z,0
2018-08-04T02:08:39.666Z,0
2018-08-04T02:09:41.716Z,0
2018-08-04T02:10:43.764Z,0
2018-08-04T02:11:45.808Z,0
2018-08-04T02:12:48.151Z,0
2018-08-04T02:13:50.192Z,0
2018-08-04T02:14:52.243Z,0
2018-08-04T02:15:54.581Z,0
2018-08-04T02:16:56.631Z,0
2018-08-04T02:17:58.974Z,0
2018-08-04T02:19:01.023Z,0
2018-08-04T02:20:03.369Z,0
2018-08-04T02:21:05.731Z,0
2018-08-04T02:22:07.769Z,0
2018-08-04T02:23:09.817Z,0
2018-08-04T02:24:12.164Z,0
2018-08-04T02:25:14.197Z,0
2018-08-04T02:26:16.247Z,0
2018-08-04T02:27:18.296Z,0
2018-08-04T02:28:20.335Z,0
2018-08-04T02:29:22.380Z,0
2018-08-04T02:30:25.019Z,0
2018-08-04T02:31:27.069Z,0
2018-08-04T02:32:29.400Z,0
2018-08-04T02:33:31.453Z,0
2018-08-04T02:34:33.781Z,0
2018-08-04T02:35:36.416Z,0
2018-08-04T02:36:38.477Z,0
2018-08-04T02:37:41.481Z,0
2018-08-04T02:38:43.523Z,0
2018-08-04T02:39:45.959Z,0
2018-08-04T02:40:47.997Z,0
2018-08-04T02:41:50.056Z,0
2018-08-04T02:42:52.390Z,0
2018-08-04T02:43:54.735Z,0
2018-08-04T02:44:57.361Z,0
2018-08-04T02:45:59.421Z,0
2018-08-04T02:47:02.135Z,0
2018-08-04T02:48:04.487Z,0
2018-08-04T02:49:06.531Z,0
2018-08-04T02:50:09.146Z,0
2018-08-04T02:51:11.581Z,0
2018-08-04T02:52:13.916Z,0
2018-08-04T02:53:16.251Z,0
2018-08-04T02:54:18.287Z,0
2018-08-04T02:55:21.015Z,0
2018-08-04T02:56:23.362Z,0
2018-08-04T02:57:25.702Z,0
2018-08-04T02:58:28.028Z,0
2018-08-04T02:59:30.383Z,0
2018-08-04T03:00:32.444Z,0
2018-08-04T03:01:35.074Z,0
2018-08-04T03:02:37.122Z,0
2018-08-04T03:03:39.176Z,0
2018-08-04T03:04:41.230Z,0
2018-08-04T03:05:43.583Z,0
2018-08-04T03:06:45.930Z,0
2018-08-04T03:07:47.974Z,0
2018-08-04T03:08:50.022Z,0
2018-08-04T03:09:52.071Z,0
2018-08-04T03:10:54.106Z,0
2018-08-04T03:11:56.148Z,0
2018-08-04T03:12:58.494Z,0
2018-08-04T03:14:00.924Z,0
2018-08-04T03:15:03.564Z,0
2018-08-04T03:16:06.564Z,0
2018-08-04T03:17:08.895Z,0
2018-08-04T03:18:11.618Z,0
2018-08-04T03:19:13.977Z,0
2018-08-04T03:20:16.019Z,0
2018-08-04T03:21:18.732Z,0
2018-08-04T03:22:21.073Z,0
2018-08-04T03:23:23.502Z,0
2018-08-04T03:24:25.848Z,0
2018-08-04T03:25:27.894Z,0
2018-08-04T03:26:30.340Z,0
2018-08-04T03:27:32.675Z,0
2018-08-04T03:28:35.405Z,0
2018-08-04T03:29:37.740Z,0
2018-08-04T03:30:40.175Z,1
2018-08-04T03:31:42.537Z,1
2018-08-04T03:32:44.580Z,1
2018-08-04T03:33:47.021Z,1
2018-08-04T03:34:49.346Z,1
2018-08-04T03:35:51.776Z,1
2018-08-04T03:36:53.828Z,1
2018-08-04T03:37:55.872Z,1
2018-08-04T03:38:58.209Z,1
2018-08-04T03:40:00.537Z,1
2018-08-04T03:41:02.582Z,2
2018-08-04T03:42:04.627Z,2
2018-08-04T03:43:06.679Z,2
2018-08-04T03:44:08.719Z,2
2018-08-04T03:45:10.761Z,2
2018-08-04T03:46:12.809Z,2
2018-08-04T03:47:15.148Z,3
2018-08-04T03:48:17.203Z,3
2018-08-04T03:49:19.246Z,3
2018-08-04T03:50:21.292Z,3
2018-08-04T03:51:23.334Z,3
2018-08-04T03:52:25.394Z,3
2018-08-04T03:53:27.435Z,4
2018-08-04T03:54:29.484Z,4
2018-08-04T03:55:31.536Z,4
2018-08-04T03:56:33.955Z,4
2018-08-04T03:57:36.297Z,4
2018-08-04T03:58:38.341Z,5
2018-08-04T03:59:40.394Z,5
2018-08-04T04:00:42.425Z,5
2018-08-04T04:01:44.765Z,5
2018-08-04T04:02:47.195Z,6
2018-08-04T04:03:49.240Z,6
2018-08-04T04:04:51.293Z,6
2018-08-04T04:05:53.331Z,7
2018-08-04T04:06:55.379Z,7
2018-08-04T04:07:57.718Z,8
2018-08-04T04:08:59.768Z,9
2018-08-04T04:10:02.189Z,9
2018-08-04T04:11:04.237Z,9
2018-08-04T04:12:06.280Z,10
2018-08-04T04:13:08.325Z,12
2018-08-04T04:14:10.375Z,13
2018-08-04T04:15:12.422Z,14
2018-08-04T04:16:14.466Z,14
2018-08-04T04:17:16.525Z,14
2018-08-04T04:18:18.572Z,14
2018-08-04T04:19:20.617Z,15
2018-08-04T04:20:22.668Z,14
2018-08-04T04:21:24.707Z,14
2018-08-04T04:22:26.753Z,13
2018-08-04T04:23:28.804Z,13
2018-08-04T04:24:30.859Z,13
2018-08-04T04:25:33.284Z,12
2018-08-04T04:26:35.335Z,12
2018-08-04T04:27:37.386Z,13
2018-08-04T04:28:39.431Z,13
2018-08-04T04:29:41.491Z,13
2018-08-04T04:30:43.817Z,13
2018-08-04T04:31:46.256Z,13
2018-08-04T04:32:48.302Z,13
2018-08-04T04:33:50.359Z,13
2018-08-04T04:34:52.401Z,13
2018-08-04T04:35:54.446Z,13
2018-08-04T04:36:56.896Z,13
2018-08-04T04:37:58.908Z,13
2018-08-04T04:39:01.261Z,13
2018-08-04T04:40:03.311Z,13
2018-08-04T04:41:05.355Z,13
2018-08-04T04:42:07.424Z,13
2018-08-04T04:43:09.774Z,13
2018-08-04T04:44:11.827Z,14
2018-08-04T04:45:13.881Z,14
2018-08-04T04:46:15.926Z,15
2018-08-04T04:47:18.645Z,16
2018-08-04T04:48:20.728Z,16
2018-08-04T04:49:23.468Z,16
2018-08-04T04:50:25.525Z,17
2018-08-04T04:51:27.575Z,17
2018-08-04T04:52:29.912Z,17
2018-08-04T04:53:31.969Z,17
2018-08-04T04:54:34.289Z,17
2018-08-04T04:55:36.623Z,17
2018-08-04T04:56:38.671Z,17
2018-08-04T04:57:40.724Z,17
2018-08-04T04:58:43.047Z,18
2018-08-04T04:59:45.099Z,18
2018-08-04T05:00:47.444Z,19
2018-08-04T05:01:49.487Z,20
2018-08-04T05:02:51.546Z,21
2018-08-04T05:03:53.591Z,21
2018-08-04T05:04:55.630Z,22
2018-08-04T05:05:58.352Z,23
2018-08-04T05:07:00.694Z,24
2018-08-04T05:08:02.734Z,24
2018-08-04T05:09:04.783Z,25
2018-08-04T05:10:06.833Z,27
2018-08-04T05:11:08.872Z,29
2018-08-04T05:12:11.311Z,31
2018-08-04T05:13:13.720Z,33
2018-08-04T05:14:15.712Z,34
2018-08-04T05:15:17.763Z,36
2018-08-04T05:16:20.099Z,37
2018-08-04T05:17:22.148Z,36
2018-08-04T05:18:24.590Z,36
2018-08-04T05:19:26.642Z,35
2018-08-04T05:20:28.681Z,35
2018-08-04T05:21:30.790Z,35
2018-08-04T05:22:32.785Z,35
2018-08-04T05:23:35.106Z,35
2018-08-04T05:24:37.152Z,35
2018-08-04T05:25:39.199Z,35
2018-08-04T05:26:41.249Z,34
2018-08-04T05:27:43.288Z,34
2018-08-04T05:28:45.627Z,34
2018-08-04T05:29:47.677Z,33
2018-08-04T05:30:49.731Z,33
2018-08-04T05:31:51.825Z,32
2018-08-04T05:32:53.827Z,32
2018-08-04T05:33:55.877Z,30
2018-08-04T05:34:57.918Z,29
2018-08-04T05:35:59.975Z,29
2018-08-04T05:37:02.301Z,29
2018-08-04T05:38:04.353Z,29
2018-08-04T05:39:06.402Z,29
2018-08-04T05:40:09.419Z,28
2018-08-04T05:41:11.463Z,28
2018-08-04T05:42:13.512Z,27
2018-08-04T05:43:15.596Z,27
2018-08-04T05:44:17.992Z,27
2018-08-04T05:45:20.047Z,27
2018-08-04T05:46:22.097Z,27
2018-08-04T05:47:24.530Z,28
2018-08-04T05:48:26.581Z,28
2018-08-04T05:49:28.931Z,29
2018-08-04T05:50:30.986Z,29
2018-08-04T05:51:33.042Z,29
2018-08-04T05:52:35.092Z,29
2018-08-04T05:53:37.135Z,28
2018-08-04T05:54:39.189Z,28
2018-08-04T05:55:41.245Z,28
2018-08-04T05:56:43.284Z,28
2018-08-04T05:57:45.336Z,28
2018-08-04T05:58:47.385Z,28
2018-08-04T05:59:49.427Z,28
2018-08-04T06:00:51.548Z,28
2018-08-04T06:01:54.110Z,27
2018-08-04T06:02:56.162Z,28
2018-08-04T06:03:58.207Z,28
2018-08-04T06:05:00.261Z,29
2018-08-04T06:06:02.653Z,29
2018-08-04T06:07:04.704Z,29
2018-08-04T06:08:06.746Z,30
2018-08-04T06:09:08.808Z,30
2018-08-04T06:10:11.243Z,30
2018-08-04T06:11:13.592Z,30
2018-08-04T06:12:15.646Z,30
2018-08-04T06:13:17.703Z,30
2018-08-04T06:14:19.749Z,31
2018-08-04T06:15:21.799Z,31
2018-08-04T06:16:23.851Z,31
2018-08-04T06:17:25.893Z,32
2018-08-04T06:18:28.249Z,32
2018-08-04T06:19:30.300Z,32
2018-08-04T06:20:32.347Z,32
2018-08-04T06:21:34.399Z,32
2018-08-04T06:22:36.456Z,32
2018-08-04T06:23:38.509Z,32
2018-08-04T06:24:40.564Z,32
2018-08-04T06:25:42.904Z,32
2018-08-04T06:26:44.951Z,33
2018-08-04T06:27:46.998Z,34
2018-08-04T06:28:49.053Z,36
2018-08-04T06:29:51.090Z,37
2018-08-04T06:30:53.143Z,37
2018-08-04T06:31:55.198Z,38
2018-08-04T06:32:57.244Z,39
2018-08-04T06:33:59.611Z,39
2018-08-04T06:35:01.941Z,38
2018-08-04T06:36:03.992Z,38
2018-08-04T06:37:06.041Z,36
2018-08-04T06:38:08.102Z,35
2018-08-04T06:39:10.150Z,34
2018-08-04T06:40:12.197Z,34
2018-08-04T06:41:14.253Z,34
2018-08-04T06:42:16.296Z,33
2018-08-04T06:43:18.350Z,34
2018-08-04T06:44:20.401Z,34
2018-08-04T06:45:22.462Z,35
2018-08-04T06:46:24.803Z,35
2018-08-04T06:47:26.859Z,36
2018-08-04T06:48:28.911Z,36
2018-08-04T06:49:30.923Z,36
2018-08-04T06:50:32.920Z,37
2018-08-04T06:51:34.975Z,38
2018-08-04T06:52:37.058Z,40
2018-08-04T06:53:39.124Z,43
2018-08-04T06:54:41.145Z,45
2018-08-04T06:55:43.581Z,48
2018-08-04T06:56:45.667Z,50
2018-08-04T06:57:47.984Z,50
2018-08-04T06:58:50.048Z,51
2018-08-04T06:59:52.366Z,52
2018-08-04T07:00:54.789Z,53
2018-08-04T07:01:56.826Z,54
2018-08-04T07:02:58.873Z,55
2018-08-04T07:04:00.885Z,56
2018-08-04T07:05:03.266Z,57
2018-08-04T07:06:05.300Z,58
2018-08-04T07:07:07.705Z,59
2018-08-04T07:08:09.819Z,61
2018-08-04T07:09:12.244Z,62
2018-08-04T07:10:14.285Z,62
2018-08-04T07:11:16.660Z,63
2018-08-04T07:12:18.728Z,64
2018-08-04T07:13:21.194Z,66
2018-08-04T07:14:23.795Z,67
2018-08-04T07:15:26.088Z,67
2018-08-04T07:16:28.498Z,68
2018-08-04T07:17:30.582Z,69
2018-08-04T07:18:33.056Z,71
2018-08-04T07:19:35.195Z,72
2018-08-04T07:20:37.547Z,72
2018-08-04T07:21:39.596Z,72
2018-08-04T07:22:41.635Z,73
2018-08-04T07:23:43.929Z,73
2018-08-04T07:24:46.271Z,74
2018-08-04T07:25:48.296Z,73
2018-08-04T07:26:50.309Z,71
2018-08-04T07:27:52.653Z,67
2018-08-04T07:28:54.759Z,67
2018-08-04T07:29:56.744Z,68
2018-08-04T07:30:59.084Z,68
2018-08-04T07:32:01.109Z,69
2018-08-04T07:33:03.738Z,73
2018-08-04T07:34:05.782Z,76
2018-08-04T07:35:07.851Z,78
2018-08-04T07:36:09.865Z,79
2018-08-04T07:37:11.921Z,78
2018-08-04T07:38:14.231Z,78
2018-08-04T07:39:16.543Z,80
2018-08-04T07:40:18.605Z,80
2018-08-04T07:41:20.639Z,75
2018-08-04T07:42:22.995Z,70
2018-08-04T07:43:25.026Z,67
2018-08-04T07:44:27.354Z,65
2018-08-04T07:45:29.467Z,64
2018-08-04T07:46:31.888Z,64
2018-08-04T07:47:33.996Z,64
2018-08-04T07:48:35.970Z,66
2018-08-04T07:49:38.011Z,69
2018-08-04T07:50:40.058Z,73
2018-08-04T07:51:42.463Z,79
2018-08-04T07:52:44.505Z,80
2018-08-04T07:53:46.502Z,77
2018-08-04T07:54:48.525Z,75
2018-08-04T07:55:51.179Z,75
2018-08-04T07:56:53.228Z,72
2018-08-04T07:57:55.273Z,68
2018-08-04T07:58:57.295Z,68
2018-08-04T07:59:59.635Z,68
2018-08-04T08:01:01.667Z,70
2018-08-04T08:02:03.733Z,76
2018-08-04T08:03:05.786Z,82
2018-08-04T08:04:08.195Z,84
2018-08-04T08:05:10.234Z,84
2018-08-04T08:06:12.566Z,85
2018-08-04T08:07:14.611Z,84
2018-08-04T08:08:16.928Z,85
2018-08-04T08:09:18.970Z,86
2018-08-04T08:10:21.140Z,88
2018-08-04T08:11:23.193Z,88
2018-08-04T08:12:25.092Z,86
2018-08-04T08:13:27.119Z,88
2018-08-04T08:14:29.139Z,92
2018-08-04T08:15:31.174Z,96
2018-08-04T08:16:33.199Z,100
2018-08-04T08:17:35.542Z,100
2018-08-04T08:18:37.886Z,103
2018-08-04T08:19:39.943Z,107
2018-08-04T08:20:41.993Z,111
2018-08-04T08:21:43.997Z,125
2018-08-04T08:22:46.033Z,132
2018-08-04T08:23:48.080Z,129
2018-08-04T08:24:50.561Z,135
2018-08-04T08:25:52.944Z,130
2018-08-04T08:26:55.287Z,119
2018-08-04T08:27:57.325Z,116
2018-08-04T08:28:59.344Z,118
2018-08-04T08:30:01.389Z,127
2018-08-04T08:31:03.435Z,141
2018-08-04T08:32:06.083Z,162
2018-08-04T08:33:08.108Z,181
2018-08-04T08:34:10.137Z,196
2018-08-04T08:35:12.432Z,196
2018-08-04T08:36:14.454Z,217
2018-08-04T08:37:24.113Z,170
2018-08-04T08:38:32.370Z,159
2018-08-04T08:39:34.411Z,154
2018-08-04T08:40:36.434Z,162
2018-08-04T08:41:38.890Z,159
2018-08-04T08:42:41.775Z,169
2018-08-04T08:43:44.202Z,161
2018-08-04T08:44:46.509Z,132
2018-08-04T08:45:48.929Z,124
2018-08-04T08:46:51.233Z,113
2018-08-04T08:47:53.248Z,146
2018-08-04T08:48:55.547Z,139
2018-08-04T08:49:57.554Z,130
2018-08-04T08:50:59.584Z,130
2018-08-04T08:52:01.595Z,104
2018-08-04T08:53:04.043Z,106
2018-08-04T08:54:06.724Z,130
2018-08-04T08:55:08.546Z,232
2018-08-04T08:56:10.567Z,127
2018-08-04T08:57:12.583Z,124
2018-08-04T08:58:14.600Z,159
2018-08-04T08:59:16.987Z,162
2018-08-04T09:00:19.006Z,216
2018-08-04T09:01:21.418Z,149
2018-08-04T09:02:23.395Z,263
2018-08-04T09:03:25.417Z,252
2018-08-04T09:04:27.426Z,242
2018-08-04T09:05:29.443Z,188
2018-08-04T09:06:31.459Z,331
2018-08-04T09:07:33.756Z,290
2018-08-04T09:08:35.789Z,332
2018-08-04T09:09:37.773Z,352
2018-08-04T09:10:40.073Z,361
2018-08-04T09:11:42.094Z,371
2018-08-04T09:12:44.409Z,367
2018-08-04T09:13:46.703Z,376
2018-08-04T09:14:48.712Z,366
2018-08-04T09:15:50.739Z,344
2018-08-04T09:16:52.758Z,348
2018-08-04T09:17:54.784Z,348
2018-08-04T09:18:56.810Z,356
2018-08-04T09:19:59.105Z,372
2018-08-04T09:21:01.126Z,381
2018-08-04T09:22:03.431Z,387
2018-08-04T09:23:05.546Z,387
2018-08-04T09:24:07.747Z,399
2018-08-04T09:25:09.768Z,397
2018-08-04T09:26:11.793Z,412
2018-08-04T09:27:14.101Z,416
2018-08-04T09:28:16.128Z,406
2018-08-04T09:29:18.142Z,404
2018-08-04T09:30:20.162Z,379
2018-08-04T09:31:22.180Z,362
2018-08-04T09:32:24.204Z,355
2018-08-04T09:33:26.640Z,363
2018-08-04T09:34:28.656Z,406
2018-08-04T09:35:31.014Z,396
2018-08-04T09:36:33.311Z,394
2018-08-04T09:37:35.334Z,368
2018-08-04T09:38:37.349Z,356
2018-08-04T09:39:39.366Z,366
2018-08-04T09:40:41.389Z,380
2018-08-04T09:41:43.414Z,386
2018-08-04T09:42:45.729Z,389
2018-08-04T09:43:47.758Z,396
2018-08-04T09:44:49.768Z,397
2018-08-04T09:45:51.780Z,389
2018-08-04T09:46:53.806Z,403
2018-08-04T09:47:56.216Z,394
2018-08-04T09:48:58.233Z,418
2018-08-04T09:50:00.248Z,398
2018-08-04T09:51:02.271Z,414
2018-08-04T09:52:04.295Z,412
2018-08-04T09:53:06.326Z,402
2018-08-04T09:54:08.323Z,393
2018-08-04T09:55:10.341Z,392
2018-08-04T09:56:12.368Z,379
2018-08-04T09:57:14.386Z,369
2018-08-04T09:58:16.412Z,397
2018-08-04T09:59:18.434Z,433
2018-08-04T10:00:20.846Z,410
2018-08-04T10:01:22.879Z,413
2018-08-04T10:02:25.179Z,412
2018-08-04T10:03:27.489Z,416
2018-08-04T10:04:29.517Z,398
2018-08-04T10:05:32.129Z,364
2018-08-04T10:06:34.716Z,336
2018-08-04T10:07:36.742Z,342
2018-08-04T10:08:38.802Z,361
2018-08-04T10:09:40.884Z,387
2018-08-04T10:10:42.983Z,397
2018-08-04T10:11:45.118Z,387
2018-08-04T10:12:47.188Z,414
2018-08-04T10:13:49.541Z,411
2018-08-04T10:14:51.666Z,407
2018-08-04T10:15:53.700Z,408
2018-08-04T10:16:55.797Z,427
2018-08-04T10:17:57.904Z,406
2018-08-04T10:18:59.993Z,414
2018-08-04T10:20:02.063Z,441
2018-08-04T10:21:04.200Z,442
2018-08-04T10:22:06.583Z,474
2018-08-04T10:23:08.663Z,467
2018-08-04T10:24:11.041Z,481
2018-08-04T10:25:13.416Z,465
2018-08-04T10:26:15.780Z,442
2018-08-04T10:27:17.956Z,480
2018-08-04T10:28:20.032Z,457
2018-08-04T10:29:22.229Z,437
2018-08-04T10:30:24.300Z,441
2018-08-04T10:31:26.365Z,441
2018-08-04T10:32:28.940Z,452
2018-08-04T10:33:30.943Z,419
2018-08-04T10:34:33.006Z,439
2018-08-04T10:35:35.092Z,426
2018-08-04T10:36:37.177Z,451
2018-08-04T10:37:39.625Z,471
2018-08-04T10:38:42.237Z,455
2018-08-04T10:39:44.292Z,444
2018-08-04T10:40:46.358Z,444
2018-08-04T10:41:48.475Z,412
2018-08-04T10:42:50.572Z,405
2018-08-04T10:43:52.663Z,418
2018-08-04T10:44:54.731Z,414
2018-08-04T10:45:56.831Z,446
2018-08-04T10:46:58.951Z,446
2018-08-04T10:48:01.129Z,429
2018-08-04T10:49:03.342Z,450
2018-08-04T10:50:05.437Z,452
2018-08-04T10:51:07.532Z,439
2018-08-04T10:52:09.620Z,421
2018-08-04T10:53:11.784Z,432
2018-08-04T10:54:14.133Z,419
2018-08-04T10:55:16.220Z,455
2018-08-04T10:56:18.305Z,406
2018-08-04T10:57:20.401Z,143
2018-08-04T10:58:22.480Z,146
2018-08-04T10:59:24.559Z,192
2018-08-04T11:00:27.018Z,117
2018-08-04T11:01:29.104Z,128
2018-08-04T11:02:31.217Z,170
2018-08-04T11:03:33.303Z,373
2018-08-04T11:04:35.393Z,105
2018-08-04T11:05:37.792Z,437
2018-08-04T11:06:39.878Z,408
2018-08-04T11:07:41.967Z,423
2018-08-04T11:08:44.088Z,434
2018-08-04T11:09:46.180Z,448
2018-08-04T11:10:48.282Z,429
2018-08-04T11:11:50.631Z,440
2018-08-04T11:12:52.727Z,461
2018-08-04T11:13:55.466Z,436
2018-08-04T11:14:57.553Z,434
2018-08-04T11:15:59.645Z,439
2018-08-04T11:17:02.054Z,454
2018-08-04T11:18:04.569Z,475
2018-08-04T11:19:06.619Z,459
2018-08-04T11:20:08.973Z,454
2018-08-04T11:21:11.075Z,448
2018-08-04T11:22:13.177Z,409
2018-08-04T11:23:15.246Z,412
2018-08-04T11:24:17.388Z,407
2018-08-04T11:25:19.432Z,423
2018-08-04T11:26:21.601Z,425
2018-08-04T11:27:23.625Z,457
2018-08-04T11:28:26.105Z,454
2018-08-04T11:29:28.262Z,366
2018-08-04T11:30:30.393Z,446
2018-08-04T11:31:32.521Z,427
2018-08-04T11:32:34.623Z,265
2018-08-04T11:33:36.729Z,356
2018-08-04T11:34:38.832Z,411
2018-08-04T11:35:41.307Z,432
2018-08-04T11:36:43.574Z,343
2018-08-04T11:37:46.086Z,182
2018-08-04T11:38:48.125Z,115
2018-08-04T11:39:50.192Z,131
2018-08-04T11:40:52.326Z,438
2018-08-04T11:41:54.417Z,337
2018-08-04T11:42:56.549Z,413
2018-08-04T11:43:58.636Z,411
2018-08-04T11:45:00.738Z,407
2018-08-04T11:46:02.803Z,430
2018-08-04T11:47:04.899Z,438
2018-08-04T11:48:07.025Z,429
2018-08-04T11:49:09.126Z,427
2018-08-04T11:50:11.222Z,431
2018-08-04T11:51:13.314Z,442
2018-08-04T11:52:15.384Z,431
2018-08-04T11:53:17.451Z,456
2018-08-04T11:54:19.524Z,439
2018-08-04T11:55:21.589Z,376
2018-08-04T11:56:23.660Z,248
2018-08-04T11:57:25.725Z,440
2018-08-04T11:58:27.831Z,146
2018-08-04T11:59:29.854Z,119
2018-08-04T12:00:31.926Z,145
2018-08-04T12:01:33.985Z,360
2018-08-04T12:02:36.053Z,130
2018-08-04T12:03:38.120Z,467
2018-08-04T12:04:40.185Z,457
2018-08-04T12:05:42.265Z,472
2018-08-04T12:06:44.611Z,486
2018-08-04T12:07:46.679Z,490
2018-08-04T12:08:48.743Z,457
2018-08-04T12:09:50.818Z,479
2018-08-04T12:10:53.570Z,497
2018-08-04T12:11:55.638Z,478
2018-08-04T12:12:57.712Z,467
2018-08-04T12:13:59.765Z,489
2018-08-04T12:15:01.841Z,464
2018-08-04T12:16:03.909Z,399
2018-08-04T12:17:05.977Z,463
2018-08-04T12:18:08.515Z,507
2018-08-04T12:19:10.488Z,473
2018-08-04T12:20:12.555Z,471
2018-08-04T12:21:14.617Z,487
2018-08-04T12:22:16.696Z,464
2018-08-04T12:23:18.766Z,470
2018-08-04T12:24:20.833Z,487
2018-08-04T12:25:23.244Z,479
2018-08-04T12:26:25.676Z,454
2018-08-04T12:27:27.750Z,445
2018-08-04T12:28:29.821Z,472
2018-08-04T12:29:31.886Z,137
2018-08-04T12:30:33.952Z,379
2018-08-04T12:31:36.017Z,186
2018-08-04T12:32:38.493Z,117
2018-08-04T12:33:40.568Z,140
2018-08-04T12:34:42.913Z,130
2018-08-04T12:35:44.982Z,276
2018-08-04T12:36:47.049Z,466
2018-08-04T12:37:49.112Z,465
2018-08-04T12:38:51.193Z,446
2018-08-04T12:39:53.568Z,431
2018-08-04T12:40:55.639Z,426
2018-08-04T12:41:57.702Z,421
2018-08-04T12:43:00.062Z,452
2018-08-04T12:44:02.127Z,430
2018-08-04T12:45:04.494Z,425
2018-08-04T12:46:06.569Z,438
2018-08-04T12:47:08.918Z,415
2018-08-04T12:48:10.991Z,396
2018-08-04T12:49:13.062Z,418
2018-08-04T12:50:15.165Z,422
2018-08-04T12:51:17.188Z,408
2018-08-04T12:52:19.810Z,403
2018-08-04T12:53:21.884Z,411
2018-08-04T12:54:23.952Z,437
2018-08-04T12:55:26.437Z,422
2018-08-04T12:56:28.935Z,275
2018-08-04T12:57:31.589Z,120
2018-08-04T12:58:33.709Z,143
2018-08-04T12:59:39.206Z,462
2018-08-04T13:00:41.571Z,434
2018-08-04T13:02:00.254Z,108
2018-08-04T13:03:04.106Z,93
2018-08-04T13:04:06.525Z,103
2018-08-04T13:05:09.003Z,183
2018-08-04T13:06:11.079Z,407
2018-08-04T13:07:13.485Z,407
2018-08-04T13:08:15.584Z,425
2018-08-04T13:09:18.077Z,118
2018-08-04T13:10:20.221Z,249
2018-08-04T13:11:22.287Z,416
2018-08-04T13:12:24.411Z,413
2018-08-04T13:13:26.493Z,418
2018-08-04T13:14:28.592Z,428
2018-08-04T13:15:30.682Z,398
2018-08-04T13:16:32.779Z,378
2018-08-04T13:17:34.917Z,410
2018-08-04T13:18:36.997Z,413
2018-08-04T13:19:39.148Z,407
2018-08-04T13:20:41.224Z,399
2018-08-04T13:21:43.317Z,396
2018-08-04T13:22:45.722Z,387
2018-08-04T13:23:48.120Z,391
2018-08-04T13:24:50.502Z,403
2018-08-04T13:25:52.607Z,418
2018-08-04T13:26:54.676Z,391
2018-08-04T13:27:56.742Z,406
2018-08-04T13:28:58.860Z,413
2018-08-04T13:30:00.960Z,424
2018-08-04T13:31:04.123Z,393
2018-08-04T13:32:06.792Z,370
2018-08-04T13:33:08.891Z,376
2018-08-04T13:34:10.962Z,386
2018-08-04T13:35:13.059Z,398
2018-08-04T13:36:16.309Z,394
2018-08-04T13:37:18.471Z,376
2018-08-04T13:38:20.510Z,365
2018-08-04T13:39:23.018Z,387
2018-08-04T13:40:25.095Z,389
2018-08-04T13:41:27.265Z,369
2018-08-04T13:42:29.656Z,356
2018-08-04T13:43:32.092Z,359
2018-08-04T13:44:34.170Z,361
2018-08-04T13:45:36.267Z,356
2018-08-04T13:46:38.555Z,355
2018-08-04T13:47:40.565Z,354
2018-08-04T13:48:42.654Z,363
2018-08-04T13:49:45.050Z,357
2018-08-04T13:50:47.121Z,355
2018-08-04T13:51:49.220Z,382
2018-08-04T13:52:51.323Z,369
2018-08-04T13:53:53.693Z,355
2018-08-04T13:54:55.769Z,330
2018-08-04T13:55:57.837Z,335
2018-08-04T13:56:59.954Z,353
2018-08-04T13:58:02.394Z,334
2018-08-04T13:59:04.760Z,333
2018-08-04T14:00:07.157Z,333
2018-08-04T14:01:09.234Z,121
2018-08-04T14:02:11.322Z,344
2018-08-04T14:03:13.408Z,394
2018-08-04T14:04:15.694Z,318
2018-08-04T14:05:18.166Z,233
2018-08-04T14:06:20.234Z,122
2018-08-04T14:07:22.321Z,107
2018-08-04T14:08:24.747Z,359
2018-08-04T14:09:26.820Z,359
2018-08-04T14:10:28.913Z,344
2018-08-04T14:11:31.011Z,308
2018-08-04T14:12:33.575Z,310
2018-08-04T14:13:35.623Z,307
2018-08-04T14:14:37.973Z,279
2018-08-04T14:15:40.046Z,92
2018-08-04T14:16:42.187Z,97
2018-08-04T14:17:44.271Z,101
2018-08-04T14:18:46.338Z,85
2018-08-04T14:19:48.409Z,78
2018-08-04T14:20:50.484Z,217
2018-08-04T14:21:52.560Z,141
2018-08-04T14:22:55.858Z,95
2018-08-04T14:23:57.917Z,326
2018-08-04T14:24:59.989Z,317
2018-08-04T14:26:02.454Z,120
2018-08-04T14:27:04.790Z,253
2018-08-04T14:28:06.862Z,74
2018-08-04T14:29:08.943Z,70
2018-08-04T14:30:11.001Z,81
2018-08-04T14:31:13.088Z,179
2018-08-04T14:32:15.157Z,107
2018-08-04T14:33:17.229Z,308
2018-08-04T14:34:19.298Z,152
2018-08-04T14:35:21.368Z,147
2018-08-04T14:36:23.442Z,230
2018-08-04T14:37:25.805Z,288
2018-08-04T14:38:28.160Z,86
2018-08-04T14:39:30.234Z,88
2018-08-04T14:40:32.321Z,64
2018-08-04T14:41:34.381Z,73
2018-08-04T14:42:36.741Z,278